Time;durP1;ratioP1;P1;durP2;ratioP2;P2;SDS_P1;SDS_P2;PMS_P1;PMS_P2;Temp;Humidity;BMP_temperature;BMP_pressure;BME280_temperature;BME280_humidity;BME280_pressure;Samples;Min_cycle;Max_cycle;Signal;HPM_P1;HPM_P2
2023/10/03 00:02:20;;;;;;;40.67;21.95;;;;;;;18.88;100.00;100939.28;5050730;28;20048;-63
2023/10/03 00:05:10;;;;;;;41.88;21.13;;;;;;;18.88;100.00;100925.47;5037991;28;20045;-63
2023/10/03 00:08:03;;;;;;;46.78;23.08;;;;;;;18.89;100.00;100924.38;5057319;28;20119;-64
2023/10/03 00:10:51;;;;;;;42.95;22.10;;;;;;;18.89;100.00;100932.66;5037404;28;20059;-63
2023/10/03 00:13:41;;;;;;;44.67;22.23;;;;;;;18.90;100.00;100917.69;5059590;28;20048;-64
2023/10/03 00:16:29;;;;;;;46.50;21.63;;;;;;;18.90;100.00;100906.66;5057549;28;20126;-63
2023/10/03 00:19:17;;;;;;;46.67;23.63;;;;;;;18.89;100.00;100907.81;5072484;28;20106;-63
2023/10/03 00:22:05;;;;;;;47.13;22.95;;;;;;;18.88;100.00;100914.44;5072168;28;20048;-63
2023/10/03 00:24:53;;;;;;;47.85;22.45;;;;;;;18.85;100.00;100909.56;5037888;28;20053;-62
2023/10/03 00:27:41;;;;;;;47.42;22.80;;;;;;;18.84;100.00;100910.72;5053235;28;20501;-64
2023/10/03 00:30:30;;;;;;;46.55;23.60;;;;;;;18.82;100.00;100899.97;5054963;28;20056;-64
2023/10/03 00:33:25;;;;;;;45.97;23.20;;;;;;;18.83;100.00;100900.78;5056306;28;20516;-63
2023/10/03 00:36:18;;;;;;;58.88;23.77;;;;;;;18.83;100.00;100895.28;5072949;28;20053;-65
2023/10/03 00:39:06;;;;;;;47.97;23.27;;;;;;;18.80;100.00;100893.97;5055363;28;20154;-63
2023/10/03 00:41:55;;;;;;;45.65;23.35;;;;;;;18.81;100.00;100886.50;5052924;28;20049;-65
2023/10/03 00:44:45;;;;;;;47.90;23.27;;;;;;;18.78;100.00;100882.44;5053485;28;20044;-64
2023/10/03 00:47:33;;;;;;;46.45;22.15;;;;;;;18.78;100.00;100878.88;5072685;28;20036;-64
2023/10/03 00:50:28;;;;;;;46.45;23.83;;;;;;;18.79;100.00;100869.47;5070456;28;20078;-64
2023/10/03 00:53:16;;;;;;;48.05;23.33;;;;;;;18.80;100.00;100854.50;5044690;28;20040;-64
2023/10/03 00:56:09;;;;;;;48.17;23.55;;;;;;;18.80;100.00;100849.81;5071316;28;20053;-63
2023/10/03 00:58:58;;;;;;;42.90;22.40;;;;;;;18.80;100.00;100837.94;5073089;28;20051;-64
2023/10/03 01:01:46;;;;;;;49.45;22.45;;;;;;;18.79;100.00;100833.59;5061639;28;20084;-64
2023/10/03 01:04:35;;;;;;;49.50;22.67;;;;;;;18.76;100.00;100820.38;5072154;28;20045;-63
2023/10/03 01:07:23;;;;;;;45.15;21.65;;;;;;;18.73;100.00;100808.84;5071540;28;20045;-63
2023/10/03 01:10:17;;;;;;;44.70;22.25;;;;;;;18.73;100.00;100803.31;5074183;28;20044;-64
2023/10/03 01:13:12;;;;;;;50.03;23.35;;;;;;;18.72;100.00;100804.47;5051372;28;20060;-63
2023/10/03 01:16:00;;;;;;;42.42;22.15;;;;;;;18.70;100.00;100795.69;5039181;28;20049;-65
2023/10/03 01:18:52;;;;;;;44.78;23.45;;;;;;;18.69;100.00;100794.06;5067373;28;20037;-63
2023/10/03 01:21:45;;;;;;;47.53;23.35;;;;;;;18.68;100.00;100789.69;5071432;28;20469;-64
2023/10/03 01:24:33;;;;;;;46.38;22.73;;;;;;;18.69;100.00;100777.53;5043553;28;20040;-63
2023/10/03 01:27:21;;;;;;;46.05;22.83;;;;;;;18.70;100.00;100773.63;5058117;28;20048;-63
2023/10/03 01:30:10;;;;;;;45.25;22.55;;;;;;;18.69;100.00;100766.47;5066328;28;20037;-63
2023/10/03 01:32:58;;;;;;;43.22;22.98;;;;;;;18.67;100.00;100765.19;5080732;28;20476;-64
2023/10/03 01:35:47;;;;;;;42.70;21.15;;;;;;;18.66;100.00;100761.59;5042569;28;20045;-64
2023/10/03 01:38:35;;;;;;;44.85;22.05;;;;;;;18.64;100.00;100755.59;5057019;28;20408;-64
2023/10/03 01:41:23;;;;;;;43.20;21.30;;;;;;;18.64;100.00;100760.28;5059793;28;20185;-62
2023/10/03 01:44:11;;;;;;;46.00;22.67;;;;;;;18.63;100.00;100755.91;5062088;28;20167;-64
2023/10/03 01:47:01;;;;;;;43.92;21.83;;;;;;;18.62;100.00;100757.88;5076116;28;20056;-63
2023/10/03 01:49:50;;;;;;;46.53;22.15;;;;;;;18.61;100.00;100750.72;5059808;28;20058;-63
2023/10/03 01:52:41;;;;;;;44.33;22.42;;;;;;;18.58;100.00;100751.38;5061452;28;20052;-64
2023/10/03 01:55:30;;;;;;;44.17;22.20;;;;;;;18.57;100.00;100744.25;5058268;28;20053;-63
2023/10/03 01:58:23;;;;;;;45.33;23.08;;;;;;;18.57;100.00;100737.88;5047177;28;20044;-63
2023/10/03 02:01:13;;;;;;;40.20;21.10;;;;;;;18.55;100.00;100743.75;5039567;28;20166;-62
2023/10/03 02:04:00;;;;;;;44.30;21.77;;;;;;;18.57;100.00;100748.91;5059383;28;20056;-63
2023/10/03 02:06:51;;;;;;;40.50;19.63;;;;;;;18.56;100.00;100747.31;5066786;28;20419;-63
2023/10/03 02:09:39;;;;;;;45.05;22.27;;;;;;;18.57;100.00;100732.38;5060169;28;20123;-64
2023/10/03 02:12:27;;;;;;;47.20;22.15;;;;;;;18.54;100.00;100744.88;5055215;28;20076;-64
2023/10/03 02:15:23;;;;;;;40.20;20.13;;;;;;;18.55;100.00;100734.66;5056730;28;20056;-64
2023/10/03 02:18:13;;;;;;;43.47;21.42;;;;;;;18.55;100.00;100723.63;5059959;28;20071;-64
2023/10/03 02:21:02;;;;;;;49.00;21.23;;;;;;;18.53;100.00;100718.41;5072823;28;20190;-64
2023/10/03 02:23:50;;;;;;;42.45;20.98;;;;;;;18.53;100.00;100716.47;5059286;28;20044;-63
2023/10/03 02:26:41;;;;;;;39.58;19.42;;;;;;;18.55;100.00;100718.09;5075361;28;20047;-63
2023/10/03 02:29:31;;;;;;;37.65;20.67;;;;;;;18.58;100.00;100711.94;5073636;28;20044;-64
2023/10/03 02:32:19;;;;;;;36.00;17.52;;;;;;;18.61;100.00;100697.47;5056124;28;20511;-63
2023/10/03 02:35:09;;;;;;;35.92;18.45;;;;;;;18.62;100.00;100693.59;5070299;28;20048;-64
2023/10/03 02:37:57;;;;;;;38.58;19.27;;;;;;;18.64;100.00;100680.25;5074834;28;20048;-63
2023/10/03 02:40:45;;;;;;;34.17;18.05;;;;;;;18.66;100.00;100700.88;5067189;28;20629;-64
2023/10/03 02:43:36;;;;;;;34.95;17.38;;;;;;;18.68;100.00;100703.31;5051489;28;20280;-63
2023/10/03 02:46:26;;;;;;;34.53;17.75;;;;;;;18.69;100.00;100714.03;5064984;28;20072;-63
2023/10/03 02:49:15;;;;;;;34.05;16.40;;;;;;;18.72;100.00;100707.84;5063825;28;20057;-63
2023/10/03 02:52:05;;;;;;;35.70;17.00;;;;;;;18.76;100.00;100715.47;5031738;28;20048;-63
2023/10/03 02:54:53;;;;;;;33.20;17.02;;;;;;;18.79;100.00;100706.59;5061236;28;20090;-63
2023/10/03 02:57:41;;;;;;;35.10;18.08;;;;;;;18.82;100.00;100728.03;5063517;28;20051;-65
2023/10/03 03:00:29;;;;;;;34.50;16.85;;;;;;;18.85;100.00;100721.84;5064274;28;20087;-63
2023/10/03 03:03:17;;;;;;;35.45;17.05;;;;;;;18.87;100.00;100720.38;5073775;28;20052;-63
2023/10/03 03:06:14;;;;;;;36.45;17.75;;;;;;;18.90;100.00;100721.66;5071906;28;20070;-61
2023/10/03 03:09:07;;;;;;;33.30;16.80;;;;;;;18.94;100.00;100731.72;5067486;28;20049;-64
2023/10/03 03:11:55;;;;;;;34.42;16.48;;;;;;;18.96;100.00;100725.91;5045317;28;20504;-63
2023/10/03 03:14:47;;;;;;;31.23;15.68;;;;;;;18.97;100.00;100721.19;5070188;28;20071;-62
2023/10/03 03:17:35;;;;;;;34.35;16.90;;;;;;;18.97;100.00;100719.22;5072837;28;20044;-63
2023/10/03 03:20:33;;;;;;;33.72;16.27;;;;;;;18.98;100.00;100720.03;5058514;28;20515;-64
2023/10/03 03:23:22;;;;;;;30.80;15.32;;;;;;;18.98;100.00;100720.03;5020021;28;20163;-64
2023/10/03 03:26:17;;;;;;;30.85;15.65;;;;;;;18.99;100.00;100710.63;5033162;28;20541;-63
2023/10/03 03:29:20;;;;;;;31.08;15.05;;;;;;;18.99;100.00;100716.94;5033367;28;20052;-64
2023/10/03 03:32:12;;;;;;;31.67;14.52;;;;;;;19.01;100.00;100708.34;5019686;28;20122;-63
2023/10/03 03:35:01;;;;;;;30.73;14.60;;;;;;;19.01;100.00;100703.63;5033229;28;20054;-64
2023/10/03 03:37:51;;;;;;;31.88;14.57;;;;;;;19.02;100.00;100702.47;5033042;28;20345;-64
2023/10/03 03:40:46;;;;;;;32.97;14.55;;;;;;;19.02;100.00;100696.16;5032045;28;20049;-63
2023/10/03 03:43:34;;;;;;;32.90;14.30;;;;;;;19.01;100.00;100706.41;5030676;28;20132;-63
2023/10/03 03:46:22;;;;;;;27.77;13.73;;;;;;;19.02;100.00;100705.25;5013841;28;20038;-64
2023/10/03 03:49:11;;;;;;;30.88;14.20;;;;;;;19.02;100.00;100709.97;5012545;28;20050;-64
2023/10/03 03:51:59;;;;;;;27.13;14.10;;;;;;;19.03;100.00;100717.94;5029748;28;20192;-64
2023/10/03 03:54:49;;;;;;;28.27;13.32;;;;;;;19.04;100.00;100708.50;5031672;28;20124;-63
2023/10/03 03:57:38;;;;;;;26.92;13.77;;;;;;;19.05;100.00;100710.13;5032594;28;20053;-65
2023/10/03 04:00:31;;;;;;;26.65;13.50;;;;;;;19.07;100.00;100718.06;5031638;28;20462;-63
2023/10/03 04:03:23;;;;;;;27.38;12.40;;;;;;;19.06;100.00;100706.22;5029926;28;20187;-63
2023/10/03 04:06:12;;;;;;;25.92;11.60;;;;;;;19.07;100.00;100716.13;5031046;28;20615;-65
2023/10/03 04:09:00;;;;;;;24.02;12.05;;;;;;;19.08;100.00;100723.28;5018113;28;20068;-64
2023/10/03 04:11:58;;;;;;;;;;;;;;;19.08;100.00;100730.75;5032902;28;20684;-63
2023/10/03 04:14:46;;;;;;;25.48;12.07;;;;;;;19.06;100.00;100728.31;5023144;28;19929;-63
2023/10/03 04:17:34;;;;;;;22.25;11.88;;;;;;;19.05;100.00;100731.38;5010893;28;20038;-64
2023/10/03 04:23:14;;;;;;;28.42;13.25;;;;;;;19.02;100.00;100730.09;5015271;28;20439;-64
2023/10/03 04:26:04;;;;;;;24.25;12.13;;;;;;;19.03;100.00;100745.53;5012832;28;20044;-64
2023/10/03 04:28:52;;;;;;;26.98;12.82;;;;;;;19.05;100.00;100759.00;5032033;28;20052;-64
2023/10/03 04:31:40;;;;;;;24.50;11.85;;;;;;;19.05;100.00;100762.59;5017730;28;20041;-64
2023/10/03 04:34:28;;;;;;;21.15;9.70;;;;;;;19.06;100.00;100755.94;5030846;28;20049;-64
2023/10/03 04:37:16;;;;;;;27.77;11.50;;;;;;;19.05;100.00;100765.38;5029934;28;20107;-65
2023/10/03 04:40:06;;;;;;;27.38;11.95;;;;;;;19.03;100.00;100767.63;5016836;28;20610;-64
2023/10/03 04:43:10;;;;;;;20.85;10.70;;;;;;;19.01;100.00;100764.38;5031741;28;20052;-65
2023/10/03 04:45:58;;;;;;;21.77;10.20;;;;;;;18.99;100.00;100765.84;5014681;28;20046;-64
2023/10/03 04:48:49;;;;;;;18.73;9.55;;;;;;;18.99;100.00;100774.13;5033602;28;20057;-64
2023/10/03 04:51:37;;;;;;;23.15;9.38;;;;;;;18.98;100.00;100778.84;5031305;28;20099;-63
2023/10/03 04:54:25;;;;;;;15.07;7.13;;;;;;;18.99;100.00;100785.19;5030906;28;20386;-64
2023/10/03 04:57:13;;;;;;;20.15;7.80;;;;;;;18.97;100.00;100796.53;5028710;28;20042;-64
2023/10/03 05:00:03;;;;;;;17.52;6.80;;;;;;;18.98;100.00;100795.41;5033993;28;20396;-64
2023/10/03 05:02:53;;;;;;;19.42;7.00;;;;;;;18.96;100.00;100789.41;5033822;28;20049;-63
2023/10/03 05:05:41;;;;;;;18.67;6.43;;;;;;;18.90;100.00;100796.22;5036075;28;20468;-63
2023/10/03 05:08:29;;;;;;;14.50;5.47;;;;;;;18.87;100.00;100796.88;5024442;28;20092;-63
2023/10/03 05:11:17;;;;;;;16.73;6.63;;;;;;;18.81;100.00;100789.88;5035909;28;20081;-64
2023/10/03 05:14:05;;;;;;;15.38;5.97;;;;;;;18.80;100.00;100785.50;5035364;28;20121;-64
2023/10/03 05:16:54;;;;;;;16.38;5.80;;;;;;;18.78;100.00;100793.28;5033854;28;20143;-63
2023/10/03 05:19:42;;;;;;;15.65;5.93;;;;;;;18.77;100.00;100811.00;5035967;28;20045;-64
2023/10/03 05:22:33;;;;;;;14.95;6.97;;;;;;;18.79;100.00;100831.63;5060308;28;20056;-62
2023/10/03 05:25:21;;;;;;;21.25;7.05;;;;;;;18.79;100.00;100836.34;5028752;28;20053;-64
2023/10/03 05:28:13;;;;;;;14.98;6.05;;;;;;;18.78;100.00;100827.22;5056624;28;20155;-64
2023/10/03 05:31:01;;;;;;;14.63;6.40;;;;;;;18.85;100.00;100835.03;5044913;28;20145;-64
2023/10/03 05:33:49;;;;;;;15.63;6.78;;;;;;;18.85;100.00;100818.47;5058088;28;20591;-65
2023/10/03 05:36:37;;;;;;;16.65;6.88;;;;;;;18.83;100.00;100812.44;5076335;28;20608;-64
2023/10/03 05:39:26;;;;;;;19.65;7.50;;;;;;;18.86;100.00;100809.06;5041506;28;20281;-64
2023/10/03 05:42:17;;;;;;;16.77;7.70;;;;;;;18.87;100.00;100813.44;5069057;28;20057;-64
2023/10/03 05:45:05;;;;;;;14.85;7.25;;;;;;;18.83;100.00;100812.44;5078243;28;20131;-64
2023/10/03 05:47:54;;;;;;;15.27;7.22;;;;;;;18.79;100.00;100817.00;5076232;28;20080;-64
2023/10/03 05:50:43;;;;;;;16.15;7.00;;;;;;;18.78;100.00;100818.13;5064222;28;20090;-65
2023/10/03 05:53:31;;;;;;;15.90;6.13;;;;;;;18.77;100.00;100833.88;5066527;28;20060;-64
2023/10/03 05:56:19;;;;;;;16.88;6.88;;;;;;;18.74;100.00;100829.81;5055518;28;20413;-64
2023/10/03 05:59:07;;;;;;;13.05;6.47;;;;;;;18.73;100.00;100832.88;5058480;28;20468;-64
2023/10/03 06:01:57;;;;;;;15.57;7.20;;;;;;;18.73;100.00;100830.13;5058584;28;20048;-65
2023/10/03 06:04:46;;;;;;;15.05;6.20;;;;;;;18.70;100.00;100823.28;5074983;28;20040;-64
2023/10/03 06:07:38;;;;;;;13.80;6.05;;;;;;;18.69;100.00;100835.47;5074822;28;20131;-64
2023/10/03 06:10:29;;;;;;;11.98;5.75;;;;;;;18.69;100.00;100835.47;5047927;28;20064;-63
2023/10/03 06:13:17;;;;;;;13.35;6.00;;;;;;;18.70;100.00;100833.53;5066495;28;20519;-65
2023/10/03 06:16:06;;;;;;;18.85;7.07;;;;;;;18.71;100.00;100838.72;4373885;28;9999960;-64
2023/10/03 06:18:56;;;;;;;13.32;6.38;;;;;;;18.68;100.00;100842.13;5084009;28;20045;-64
2023/10/03 06:21:45;;;;;;;15.57;6.72;;;;;;;18.70;100.00;100844.56;5056184;28;20412;-65
2023/10/03 06:24:34;;;;;;;13.63;6.60;;;;;;;18.70;100.00;100841.81;5053039;28;20082;-64
2023/10/03 06:27:22;;;;;;;16.48;6.53;;;;;;;18.71;100.00;100840.66;5069515;28;20467;-64
2023/10/03 06:30:10;;;;;;;15.20;6.75;;;;;;;18.69;100.00;100843.75;5062047;28;20477;-64
2023/10/03 06:32:58;;;;;;;16.70;7.00;;;;;;;18.66;100.00;100860.13;5050297;28;20411;-67
2023/10/03 06:35:50;;;;;;;14.10;6.78;;;;;;;18.62;100.00;100867.44;5043369;28;20064;-65
2023/10/03 06:38:41;;;;;;;17.63;7.38;;;;;;;18.59;100.00;100868.91;5040095;28;20052;-66
2023/10/03 06:41:29;;;;;;;19.33;7.43;;;;;;;18.60;100.00;100865.00;5067396;28;20458;-65
2023/10/03 06:44:17;;;;;;;12.88;6.18;;;;;;;18.62;100.00;100873.78;5070022;28;20420;-66
2023/10/03 06:47:07;;;;;;;14.70;6.35;;;;;;;18.64;100.00;100876.19;5070735;28;20419;-65
2023/10/03 06:49:55;;;;;;;16.15;7.07;;;;;;;18.68;100.00;100878.00;5071589;28;20060;-66
2023/10/03 06:52:43;;;;;;;17.55;6.10;;;;;;;18.68;100.00;100883.53;5046717;28;20047;-66
2023/10/03 06:55:34;;;;;;;14.50;7.00;;;;;;;18.70;100.00;100885.97;5052598;28;20037;-69
2023/10/03 06:58:22;;;;;;;23.00;8.85;;;;;;;18.76;100.00;100897.66;5037454;28;20118;-65
2023/10/03 07:01:11;;;;;;;22.20;7.55;;;;;;;18.77;100.00;100893.81;5056286;28;20045;-66
2023/10/03 07:04:00;;;;;;;19.55;7.45;;;;;;;18.74;100.00;100896.06;5038261;28;20087;-65
2023/10/03 07:06:50;;;;;;;11.70;5.20;;;;;;;18.69;100.00;100907.25;5037528;28;20512;-66
2023/10/03 07:09:39;;;;;;;14.15;6.15;;;;;;;18.67;100.00;100912.25;5039037;28;20447;-65
2023/10/03 07:12:29;;;;;;;13.50;6.00;;;;;;;18.64;100.00;100926.72;5041538;28;20056;-65
2023/10/03 07:15:17;;;;;;;10.45;5.10;;;;;;;18.63;100.00;100925.06;5037313;28;20087;-65
2023/10/03 07:18:05;;;;;;;22.40;9.73;;;;;;;18.66;100.00;100910.63;5056225;28;20072;-65
2023/10/03 07:20:55;;;;;;;24.75;9.65;;;;;;;18.66;100.00;100915.34;5056457;28;20051;-66
2023/10/03 07:23:44;;;;;;;11.10;5.70;;;;;;;18.62;100.00;100926.22;5070242;28;20049;-66
2023/10/03 07:26:32;;;;;;;11.02;6.05;;;;;;;18.64;100.00;100918.44;5066944;28;20044;-66
2023/10/03 07:29:21;;;;;;;24.30;10.57;;;;;;;18.64;100.00;100910.16;5062119;28;20056;-65
2023/10/03 07:32:12;;;;;;;14.70;7.30;;;;;;;18.65;100.00;100922.00;5068848;28;20055;-66
2023/10/03 07:35:02;;;;;;;14.45;7.05;;;;;;;18.65;100.00;100914.53;5050811;28;20041;-65
2023/10/03 07:37:53;;;;;;;12.57;6.10;;;;;;;18.62;100.00;100922.66;5038519;28;20037;-65
2023/10/03 07:40:41;;;;;;;13.43;5.72;;;;;;;18.56;100.00;100921.97;5070564;28;20518;-65
2023/10/03 07:43:29;;;;;;;13.00;6.38;;;;;;;18.55;100.00;100920.34;5059187;28;20044;-65
2023/10/03 07:46:21;;;;;;;13.50;5.85;;;;;;;18.56;100.00;100935.75;5052032;28;20044;-67
2023/10/03 07:49:09;;;;;;;14.10;5.97;;;;;;;18.60;100.00;100928.47;5042693;28;20401;-65
2023/10/03 07:52:00;;;;;;;24.90;8.48;;;;;;;18.63;100.00;100932.53;5035919;28;20123;-68
2023/10/03 07:54:54;;;;;;;13.15;6.65;;;;;;;18.70;100.00;100952.22;5057520;28;20098;-68
2023/10/03 07:57:43;;;;;;;23.73;8.25;;;;;;;18.72;100.00;100969.28;5057891;28;20044;-67
2023/10/03 08:00:31;;;;;;;16.55;7.65;;;;;;;18.74;100.00;100980.81;5041890;28;20052;-67
2023/10/03 08:03:19;;;;;;;20.00;7.13;;;;;;;18.76;100.00;100977.72;5058483;28;20048;-67
2023/10/03 08:06:10;;;;;;;28.23;8.98;;;;;;;18.77;100.00;100976.63;5026357;28;20051;-67
2023/10/03 08:08:59;;;;;;;17.52;7.13;;;;;;;18.76;100.00;100981.34;5052291;28;20076;-65
2023/10/03 08:11:51;;;;;;;18.77;7.28;;;;;;;18.74;100.00;100981.63;5049018;28;20159;-63
2023/10/03 08:14:40;;;;;;;17.55;7.10;;;;;;;18.76;100.00;100999.78;5070358;28;20040;-64
2023/10/03 08:17:32;;;;;;;14.55;7.13;;;;;;;18.77;100.00;101018.03;5053127;28;20401;-64
2023/10/03 08:20:21;;;;;;;12.50;6.05;;;;;;;18.76;100.00;101014.47;5055864;28;20044;-64
2023/10/03 08:23:09;;;;;;;16.85;6.38;;;;;;;18.75;100.00;101021.06;5071342;28;20494;-64
2023/10/03 08:26:01;;;;;;;12.25;6.57;;;;;;;18.71;100.00;101011.78;5071057;28;20044;-64
2023/10/03 08:28:59;;;;;;;13.73;5.72;;;;;;;18.72;100.00;101027.25;5072078;28;20063;-63
2023/10/03 08:31:58;;;;;;;15.23;5.97;;;;;;;18.70;100.00;101035.81;5036246;28;20531;-65
2023/10/03 08:34:47;;;;;;;15.48;5.55;;;;;;;18.71;100.00;101037.47;5057306;28;20045;-63
2023/10/03 08:37:38;;;;;;;11.38;4.38;;;;;;;18.72;100.00;101028.03;5073881;28;20041;-63
2023/10/03 08:40:27;;;;;;;9.68;4.47;;;;;;;18.74;100.00;101047.88;5061227;28;20036;-64
2023/10/03 08:43:15;;;;;;;10.38;3.97;;;;;;;18.77;100.00;101067.72;5064029;28;20095;-64
2023/10/03 08:46:03;;;;;;;9.07;3.50;;;;;;;18.76;100.00;101064.16;5075855;28;20455;-63
2023/10/03 08:48:52;;;;;;;10.60;3.15;;;;;;;18.75;100.00;101070.75;5063327;28;20079;-63
2023/10/03 08:51:42;;;;;;;8.45;3.00;;;;;;;18.71;100.00;101080.78;5058320;28;20047;-63
2023/10/03 08:54:36;;;;;;;8.23;3.10;;;;;;;18.69;100.00;101074.81;5067557;28;20056;-63
2023/10/03 08:57:24;;;;;;;9.35;2.90;;;;;;;18.69;100.00;101089.41;5068828;28;20135;-64
2023/10/03 09:00:12;;;;;;;11.48;3.38;;;;;;;18.53;100.00;101102.78;5042014;28;20048;-65
2023/10/03 09:03:09;;;;;;;9.30;2.78;;;;;;;18.55;100.00;101134.78;5058846;28;20127;-63
2023/10/03 09:05:58;;;;;;;4.85;1.98;;;;;;;18.41;100.00;101143.94;5053767;28;20102;-64
2023/10/03 09:08:48;;;;;;;6.65;2.20;;;;;;;18.29;100.00;101146.44;5075722;28;20044;-64
2023/10/03 09:11:37;;;;;;;7.35;2.50;;;;;;;18.17;100.00;101135.94;5059388;28;20657;-64
2023/10/03 09:14:25;;;;;;;7.03;2.15;;;;;;;18.20;100.00;101132.56;5042416;28;20132;-64
2023/10/03 09:17:23;;;;;;;6.15;2.30;;;;;;;18.25;100.00;101142.66;5026381;28;20045;-63
2023/10/03 09:20:20;;;;;;;5.28;2.05;;;;;;;18.27;100.00;101140.41;5056362;28;20157;-64
2023/10/03 09:23:08;;;;;;;8.35;2.55;;;;;;;18.23;100.00;101151.25;5057337;28;20114;-64
2023/10/03 09:26:01;;;;;;;6.50;2.15;;;;;;;18.08;100.00;101151.59;5050708;28;20110;-65
2023/10/03 09:28:51;;;;;;;8.15;2.30;;;;;;;17.99;100.00;101161.72;5075015;28;20048;-64
2023/10/03 09:31:41;;;;;;;7.05;2.35;;;;;;;18.00;100.00;101182.69;5041156;28;20596;-64
2023/10/03 09:34:32;;;;;;;8.48;2.50;;;;;;;18.13;100.00;101189.28;5039920;28;20072;-65
2023/10/03 09:37:20;;;;;;;7.95;2.63;;;;;;;18.21;100.00;101211.44;5046254;28;20102;-65
2023/10/03 09:40:16;;;;;;;9.68;3.17;;;;;;;18.16;100.00;101203.28;5058151;28;20501;-66
2023/10/03 09:43:11;;;;;;;7.63;2.30;;;;;;;18.09;100.00;101216.66;5060302;28;20040;-65
2023/10/03 09:46:00;;;;;;;7.27;2.40;;;;;;;18.10;100.00;101210.03;5062014;28;20043;-64
2023/10/03 09:48:53;;;;;;;7.85;2.78;;;;;;;17.98;100.00;101209.75;5051153;28;20791;-67
2023/10/03 09:51:47;;;;;;;8.02;2.40;;;;;;;17.87;100.00;101207.22;5048491;28;20063;-66
2023/10/03 09:54:39;;;;;;;10.10;2.67;;;;;;;17.85;100.00;101208.63;5054760;28;20707;-65
2023/10/03 09:57:32;;;;;;;8.02;2.58;;;;;;;17.85;100.00;101206.69;5074747;28;20041;-65
2023/10/03 10:00:25;;;;;;;7.30;2.55;;;;;;;17.82;100.00;101218.34;5061297;28;20036;-65
2023/10/03 10:03:19;;;;;;;7.57;2.58;;;;;;;17.81;100.00;101215.88;5058445;28;20110;-66
2023/10/03 10:06:23;;;;;;;6.40;2.80;;;;;;;17.74;100.00;101235.53;5061169;28;20099;-64
2023/10/03 10:09:23;;;;;;;7.03;2.67;;;;;;;17.62;100.00;101252.59;5048409;28;20127;-65
2023/10/03 10:12:13;;;;;;;7.97;1.90;;;;;;;17.36;100.00;101256.94;5060182;28;20086;-65
2023/10/03 10:15:13;;;;;;;5.22;1.70;;;;;;;17.14;100.00;101260.34;5026693;28;20052;-66
2023/10/03 10:18:02;;;;;;;5.97;1.38;;;;;;;17.11;100.00;101260.97;5037105;28;20128;-66
2023/10/03 10:21:37;;;;;;;2.60;1.40;;;;;;;17.11;100.00;101260.97;5054051;28;20041;-65
2023/10/03 10:24:28;;;;;;;4.70;1.67;;;;;;;17.21;100.00;101275.38;5055698;28;20037;-64
2023/10/03 10:27:21;;;;;;;4.43;2.00;;;;;;;17.31;100.00;101287.34;5054487;28;20040;-65
2023/10/03 10:30:13;;;;;;;3.60;1.58;;;;;;;17.31;100.00;101304.66;5039507;28;20130;-66
2023/10/03 10:33:23;;;;;;;6.10;1.80;;;;;;;17.31;100.00;101301.09;5047821;28;20040;-65
2023/10/03 10:36:12;;;;;;;3.33;1.70;;;;;;;17.34;100.00;101308.75;4356010;28;10000345;-65
2023/10/03 10:39:02;;;;;;;5.40;1.80;;;;;;;17.29;100.00;101301.41;5070763;28;20119;-65
2023/10/03 10:42:10;;;;;;;6.65;1.80;;;;;;;17.34;100.00;101314.25;5023062;28;20060;-65
2023/10/03 10:45:04;;;;;;;6.57;2.03;;;;;;;17.45;100.00;101313.78;5049003;28;20075;-64
2023/10/03 10:47:55;;;;;;;7.22;1.95;;;;;;;17.44;100.00;101314.09;5070094;28;20036;-64
2023/10/03 10:51:02;;;;;;;6.68;2.08;;;;;;;17.46;100.00;101322.88;5035330;28;20767;-67
2023/10/03 10:53:51;;;;;;;7.75;2.03;;;;;;;17.45;100.00;101324.81;5052327;28;20131;-64
2023/10/03 10:56:39;;;;;;;5.68;1.95;;;;;;;17.47;100.00;101324.50;5063792;28;20051;-66
2023/10/03 10:59:28;;;;;;;5.50;2.10;;;;;;;17.44;100.00;101328.69;5069450;28;20152;-65
2023/10/03 11:02:20;;;;;;;7.13;2.22;;;;;;;17.37;100.00;101339.28;5026470;28;20048;-66
2023/10/03 11:05:10;;;;;;;6.40;2.25;;;;;;;17.36;100.00;101348.66;5069365;28;20056;-66
2023/10/03 11:07:58;;;;;;;5.72;2.03;;;;;;;17.34;100.00;101355.56;5052098;28;20524;-66
2023/10/03 11:10:54;;;;;;;7.22;2.20;;;;;;;17.23;100.00;101346.69;5030026;28;20037;-66
2023/10/03 11:13:49;;;;;;;5.43;2.17;;;;;;;17.22;100.00;101356.03;5068811;28;20523;-65
2023/10/03 11:16:38;;;;;;;9.18;1.80;;;;;;;17.25;100.00;101349.97;5069522;28;20036;-65
2023/10/03 11:19:30;;;;;;;5.50;1.80;;;;;;;17.24;100.00;101353.81;5054035;28;20449;-65
2023/10/03 11:22:19;;;;;;;3.65;1.73;;;;;;;17.20;100.00;101364.63;5035874;28;20057;-66
2023/10/03 11:25:11;;;;;;;5.03;1.63;;;;;;;17.16;100.00;101373.78;5056645;28;20056;-66
2023/10/03 11:28:09;;;;;;;5.32;2.00;;;;;;;17.18;100.00;101377.06;5056194;28;20475;-65
2023/10/03 11:31:01;;;;;;;2.15;1.38;;;;;;;17.17;100.00;101367.13;5070065;28;20051;-66
2023/10/03 11:33:50;;;;;;;3.03;1.40;;;;;;;17.09;100.00;101378.84;5068596;28;20040;-65
2023/10/03 11:36:45;;;;;;;4.22;1.40;;;;;;;16.94;100.00;101371.63;5046630;28;20052;-67
2023/10/03 11:39:37;;;;;;;5.07;1.85;;;;;;;16.83;100.00;101368.19;5074204;28;20492;-66
2023/10/03 11:42:25;;;;;;;3.25;1.73;;;;;;;16.75;100.00;101391.66;5059936;28;20059;-66
2023/10/03 11:45:18;;;;;;;3.67;1.60;;;;;;;16.78;100.00;101393.00;5059992;28;20137;-65
2023/10/03 11:48:17;;;;;;;5.63;2.22;;;;;;;16.75;100.00;101401.84;5059670;28;20040;-65
2023/10/03 11:51:06;;;;;;;4.70;1.80;;;;;;;16.77;100.00;101399.63;5073828;28;20122;-65
2023/10/03 11:53:54;;;;;;;4.13;1.73;;;;;;;16.83;100.00;101409.47;5060691;28;20047;-65
2023/10/03 11:56:46;;;;;;;5.30;1.80;;;;;;;16.76;100.00;101409.81;5060241;28;20045;-65
2023/10/03 11:59:34;;;;;;;6.75;2.45;;;;;;;16.75;100.00;101418.38;5073075;28;20040;-64
2023/10/03 12:02:23;;;;;;;7.70;2.35;;;;;;;16.72;100.00;101436.28;5064505;28;20049;-65
2023/10/03 12:05:11;;;;;;;7.03;2.40;;;;;;;16.70;100.00;101452.28;5074519;28;20044;-65
2023/10/03 12:08:03;;;;;;;5.80;2.55;;;;;;;16.54;100.00;101450.81;5058317;28;20120;-65
2023/10/03 12:10:51;;;;;;;6.75;2.90;;;;;;;16.55;100.00;101461.53;5072639;28;20059;-64
2023/10/03 12:13:39;;;;;;;9.30;2.95;;;;;;;16.37;100.00;101481.53;5071840;28;20048;-65
2023/10/03 12:16:27;;;;;;;5.85;2.13;;;;;;;16.28;100.00;101466.75;5058291;28;20051;-65
2023/10/03 12:19:18;;;;;;;5.82;2.60;;;;;;;16.32;100.00;101481.59;5057657;28;20047;-65
2023/10/03 12:22:08;;;;;;;7.93;2.80;;;;;;;16.38;100.00;101486.75;5032680;28;20052;-65
2023/10/03 12:24:57;;;;;;;9.60;3.00;;;;;;;16.39;100.00;101490.31;5064262;28;20044;-65
2023/10/03 12:27:45;;;;;;;7.45;2.67;;;;;;;16.43;100.00;101494.13;5072771;28;20044;-65
2023/10/03 12:30:33;;;;;;;5.75;2.45;;;;;;;16.47;100.00;101492.41;5043402;28;20041;-64
2023/10/03 12:33:21;;;;;;;10.15;3.08;;;;;;;16.51;100.00;101500.91;5057483;28;20080;-65
2023/10/03 12:36:14;;;;;;;9.80;3.63;;;;;;;16.52;100.00;101522.63;5056647;28;20055;-65
2023/10/03 12:39:05;;;;;;;8.15;3.08;;;;;;;16.52;100.00;101522.63;5043668;28;20178;-64
2023/10/03 12:41:53;;;;;;;8.60;3.25;;;;;;;16.44;100.00;101528.75;5072669;28;20127;-64
2023/10/03 12:44:41;;;;;;;7.70;2.90;;;;;;;16.27;100.00;101550.38;5072823;28;20047;-64
2023/10/03 12:47:35;;;;;;;7.28;2.30;;;;;;;16.05;100.00;101570.91;5075109;28;20135;-64
2023/10/03 12:50:24;;;;;;;4.68;2.30;;;;;;;15.89;100.00;101572.94;5073559;28;20051;-64
2023/10/03 12:53:12;;;;;;;5.38;2.20;;;;;;;15.90;100.00;101579.28;5057852;28;20036;-64
2023/10/03 12:56:02;;;;;;;6.38;2.30;;;;;;;15.96;100.00;101573.44;5042253;28;20129;-65
2023/10/03 12:58:50;;;;;;;7.20;2.92;;;;;;;15.93;100.00;101579.50;5043882;28;20052;-64